Aeroporto :
LOGIN :

Iscrizione | Disclaimer

   EN    FR    IT 

 










Sommario :    VFR   VFR Marginale   IFR   IFR Intensivo   IFR Molto Intensivo
Visibilità : 
Base nubi : 
>= 8 km
>= 3000ft
5 / 8 km
1000 / 3000 ft
1500m / 5 km
500 / 1000 ft
800 / 1500m
200 / 500 ft
< 800m
< 200 ft
Simboli :   Temporali  Nebbia  Neve Forte  Precipitazioni Forti  Vento > 20 kt
SIGMETs :   Varie  Temporali  Ghiacco  Turbolenza  Onda orograficha  Ceneri Vulcaniche






- Altitudine del aeroporto : 370 ft


EBBE - Beauvechain AB

ULTIMO METAR :
  • 181155Z 17010KT 9999 FEW037 29/19 Q1011 BLU BLU

METARs OBSOLETI :
  • 181125Z 18008KT 9999 FEW032 29/19 Q1011 BLU BLU
  • 181055Z 18008KT 9999 FEW028 28/21 Q1012 BLU BLU
  • 181025Z 14006KT 9999 FEW025 27/19 Q1012 BLU BLU
  • 180955Z 13005KT 9999 FEW024 26/20 Q1012 BLU BLU
  • 180952Z 13006KT 9999 FEW024 26/20 Q1012 BLU BLU
  • 180925Z 11006KT 9999 SCT090 25/21 Q1012 BLU BLU TEMPO WHT

TAF TAF EBBE
Valido dal 18 a 10 ore il 18 a 19 ore UTC


180841Z 1810/1819 08007KT 9999 SCT100 BKN120
TEMPO 1810/1819 10010G20KT 4000 SHRA BKN020TCU
BECMG 1811/1813 22010KT
PROB40
TEMPO 1812/1819 20020G35KT 2000 TSRA TSRAGS BKN015CB



MetMap, La meteo Aeronautica in un colpo d'occhio ! - Copyright ORBIFLY Dicembre 2007 - Disclaimer

ORBIFLY MET'MAP TEAM :

Programmazione e sviluppo : Alexandra Zaïnal
Concezione : Baudouin d'Aumeries
Aiuto per la programmazione : Marc-Olivier Méhu
Supporto tecnico e logistico : Manuel Goepfert
Aiuto per la traduzione : Arnaldo La Scala

Contatto : metmap@orbifly.com




FONTI E CREDITI :

   NOAA